Flight Track Log - Related Links

Times and Time Zones

All times are in EDT time to prevent confusion due to time zone crossing. See the TYR850 flight status page for this flight to view local times or setup timezone preferences in your user account.

Time Position Orientation Groundspeed Altitude Reporting Facility
EDT Latitude Longitude Course Direction KTS MPH feet Rate Location/Type
Thu 10:40:00 PM 42.5206 19.2506 343° North  Level Estimated
Thu 10:41:00 PM 42.6127 19.2107 342° North  Level Estimated
Thu 10:42:00 PM 42.7048 19.1706 342° North  Level Estimated
Thu 10:43:00 PM 42.7968 19.1305 342° North  Level Estimated
Thu 10:44:00 PM 42.8888 19.0902 342° North  Level Estimated
Thu 10:45:00 PM 42.9808 19.0498 342° North  Level Estimated
Thu 10:46:00 PM 43.0728 19.0093 342° North  Level Estimated
Thu 10:47:00 PM 43.1648 18.9687 342° North  Level Estimated
Thu 10:48:00 PM 43.2568 18.9279 342° North  Level Estimated
Thu 10:49:00 PM 43.3488 18.8871 342° North  Level Estimated
Thu 10:50:00 PM 43.4407 18.8461 342° North  Level Estimated
Thu 10:51:00 PM 43.5326 18.8049 342° North  Level Estimated
Thu 10:52:00 PM 43.6245 18.7637 342° North  Level Estimated
Thu 10:53:00 PM 43.7164 18.7223 342° North  Level Estimated
Thu 10:54:00 PM 43.8083 18.6808 342° North  Level Estimated
Thu 10:55:00 PM 43.9002 18.6392 342° North  Level Estimated
Thu 10:56:00 PM 43.9920 18.5974 342° North  Level Estimated
Thu 10:57:00 PM 44.0839 18.5555 342° North  Level Estimated
Thu 10:58:00 PM 44.1757 18.5135 342° North  Level Estimated
Thu 10:59:00 PM 44.2675 18.4713 342° North  Level Estimated
Thu 11:00:00 PM 44.3593 18.4291 342° North  Level Estimated
Thu 11:01:00 PM 44.4511 18.3866 342° North  Level Estimated
Thu 11:02:00 PM 44.5428 18.3441 342° North  Level Estimated
Thu 11:03:00 PM 44.6346 18.3014 342° North  Level Estimated
Thu 11:04:00 PM 44.7263 18.2586 342° North  Level Estimated
Thu 11:05:00 PM 44.8180 18.2156 342° North  Level Estimated
Thu 11:06:00 PM 44.9097 18.1725 342° North  Level Estimated
Thu 11:07:00 PM 45.0014 18.1293 342° North  Level Estimated
Thu 11:08:00 PM 45.0930 18.0859 342° North  Level Estimated
Thu 11:09:00 PM 45.1847 18.0424 342° North  Level Estimated
Thu 11:10:00 PM 45.2763 17.9988 341° North  Level Estimated
Thu 11:11:00 PM 45.3679 17.9550 341° North  Level Estimated
Thu 11:12:00 PM 45.4595 17.9110 341° North  Level Estimated
Thu 11:13:00 PM 45.5511 17.8670 341° North  Level Estimated
Thu 11:14:00 PM 45.6427 17.8227 341° North  Level Estimated
Thu 11:15:00 PM 45.7342 17.7784 341° North  Level Estimated
Thu 11:16:00 PM 45.8257 17.7339 341° North  Level Estimated
Thu 11:17:00 PM 45.9173 17.6892 341° North  Level Estimated
Thu 11:18:00 PM 46.0088 17.6444 341° North  Level Estimated
Thu 11:19:00 PM 46.1002 17.5995 341° North  Level Estimated
Thu 11:20:00 PM 46.1917 17.5544 341° North  Level Estimated
Thu 11:21:00 PM 46.2831 17.5091 341° North  Level Estimated
Thu 11:22:00 PM 46.3745 17.4637 341° North  Level Estimated
Thu 11:23:00 PM 46.4660 17.4181 341° North  Level Estimated
Thu 11:24:00 PM 46.5573 17.3724 341° North  Level Estimated
Thu 11:25:00 PM 46.6487 17.3266 341° North  Level Estimated
Thu 11:26:00 PM 46.7401 17.2806 341° North  Level Estimated
Thu 11:27:00 PM 46.8314 17.2344 341° North  Level Estimated
Thu 11:28:00 PM 46.9227 17.1880 341° North  Level Estimated
Thu 11:29:00 PM 47.0140 17.1416 341° North  Level Estimated
Thu 11:30:00 PM 47.1053 17.0949 341° North  Level Estimated
Thu 11:31:00 PM 47.1965 17.0481 341° North  Level Estimated
Thu 11:32:00 PM 47.2878 17.0011 341° North  Level Estimated
Thu 11:33:00 PM 47.3790 16.9540 341° North  Level Estimated
Thu 11:34:00 PM 47.4702 16.9067 341° North  Level Estimated
Thu 11:35:00 PM 47.5614 16.8592 341° North  Level Estimated
Thu 11:36:00 PM 47.6525 16.8116 341° North  Level Estimated
Thu 11:37:00 PM 47.7437 16.7638 341° North  Level Estimated
Thu 11:38:00 PM 47.8348 16.7158 341° North  Level Estimated
Thu 11:39:00 PM 47.9259 16.6677 341° North  Level Estimated
Thu 11:40:00 PM 48.0170 16.6194 340° North  Level Estimated
Thu 11:41:00 PM 48.1080 16.5709 340° North  Level Estimated
Thu 11:42:00 PM 48.1103 16.5697 340° North  Level Estimated
Thu 11:43:00 PM 48.1103 16.5697 146° Southeast  Level Estimated
Thu 11:44:00 PM 48.1103 16.5697 146° Southeast  Level Estimated
Thu 11:45:00 PM 48.1103 16.5697 146° Southeast  Level Estimated
Thu 11:46:00 PM 48.1103 16.5697 146° Southeast  Level Estimated
Thu 11:47:00 PM 48.1103 16.5697 146° Southeast  Level Estimated
Thu 11:48:00 PM 48.1103 16.5697 146° Southeast  Level Estimated
Thu 11:49:00 PM 48.1103 16.5697 146° Southeast  Level Estimated
Thu 11:50:00 PM 48.1103 16.5697 146° Southeast  Level Estimated
Thu 11:51:00 PM 48.1103 16.5697 146° Southeast  Level Estimated
Thu 11:52:00 PM 48.1103 16.5697 146° Southeast  Level Estimated
Thu 11:53:00 PM 48.1103 16.5697 146° Southeast  Level Estimated

Login

Don't have an account? Register now (free) for customized features, flight alerts, and more!